Time;durP1;ratioP1;P1;durP2;ratioP2;P2;SDS_P1;SDS_P2;PMS_P1;PMS_P2;Temp;Humidity;BMP_temperature;BMP_pressure;BME280_temperature;BME280_humidity;BME280_pressure;Samples;Min_cycle;Max_cycle;Signal;HPM_P1;HPM_P2
2021/08/07 00:02:12;;;;;;;1.60;1.50;;;;;;;17.21;80.94;99457.69;5055573;28;20773;-78
2021/08/07 00:04:38;;;;;;;1.60;1.50;;;;;;;17.20;81.23;99450.72;5056687;28;20216;-77
2021/08/07 00:07:04;;;;;;;1.57;1.47;;;;;;;17.17;81.40;99450.09;5054599;28;20265;-78
2021/08/07 00:09:32;;;;;;;2.17;1.97;;;;;;;17.14;80.90;99463.44;5056762;28;20228;-78
2021/08/07 00:11:59;;;;;;;1.70;1.60;;;;;;;17.11;81.03;99447.84;5055884;28;20229;-78
2021/08/07 00:14:25;;;;;;;2.07;1.70;;;;;;;17.04;81.38;99442.91;5056655;28;20209;-77
2021/08/07 00:16:52;;;;;;;2.83;1.63;;;;;;;17.06;81.53;99432.28;5060545;28;20213;-77
2021/08/07 00:19:18;;;;;;;1.50;1.40;;;;;;;17.04;81.55;99432.38;5060403;28;20256;-77
2021/08/07 00:21:45;;;;;;;1.50;1.30;;;;;;;17.03;81.43;99435.97;5059850;28;20201;-78
2021/08/07 00:24:11;;;;;;;1.63;1.53;;;;;;;17.01;81.22;99447.56;5058922;28;20663;-78
2021/08/07 00:26:40;;;;;;;1.47;1.37;;;;;;;16.95;81.91;99435.59;5059900;28;20902;-78
2021/08/07 00:29:07;;;;;;;1.60;1.20;;;;;;;16.92;81.42;99441.03;5052498;28;20202;-77
2021/08/07 00:31:33;;;;;;;1.23;1.13;;;;;;;16.91;81.30;99435.84;5039414;28;20226;-77
2021/08/07 00:33:59;;;;;;;1.57;1.47;;;;;;;16.85;81.69;99431.81;5038166;28;20284;-78
2021/08/07 00:36:26;;;;;;;1.27;1.17;;;;;;;16.81;81.69;99425.91;5039587;28;20210;-78
2021/08/07 00:38:52;;;;;;;1.93;1.60;;;;;;;16.78;81.63;99430.47;5039130;28;20253;-78
2021/08/07 00:41:19;;;;;;;1.70;1.60;;;;;;;16.76;81.72;99434.97;5045206;28;20209;-78
2021/08/07 00:43:46;;;;;;;1.30;1.20;;;;;;;16.74;81.80;99427.16;5052984;28;20222;-78
2021/08/07 00:46:13;;;;;;;1.50;1.40;;;;;;;16.69;82.08;99423.97;5039923;28;20209;-78
2021/08/07 00:48:39;;;;;;;1.33;1.00;;;;;;;16.71;81.89;99419.47;5039384;28;20206;-77
2021/08/07 00:51:06;;;;;;;2.23;1.80;;;;;;;16.70;82.07;99428.28;5038106;28;20288;-78
2021/08/07 00:53:33;;;;;;;1.63;1.30;;;;;;;16.61;81.77;99427.06;5038382;28;20222;-78
2021/08/07 00:55:59;;;;;;;2.20;1.60;;;;;;;16.57;81.96;99424.69;5039773;28;20202;-78
2021/08/07 00:58:26;;;;;;;1.73;1.63;;;;;;;16.58;82.30;99408.81;5042805;28;20201;-78
2021/08/07 01:00:54;;;;;;;1.37;1.27;;;;;;;16.57;82.07;99422.06;5058857;28;20205;-78
2021/08/07 01:03:29;;;;;;;1.70;1.60;;;;;;;16.48;82.37;99403.22;5057792;28;20271;-78
2021/08/07 01:06:00;;;;;;;4.93;1.50;;;;;;;16.47;82.68;99403.31;5059222;28;20204;-78
2021/08/07 01:08:31;;;;;;;1.70;1.60;;;;;;;16.45;82.76;99387.63;5059380;28;20209;-78
2021/08/07 01:11:06;;;;;;;3.23;1.60;;;;;;;16.40;83.04;99368.59;5058687;28;20255;-77
2021/08/07 01:13:36;;;;;;;1.30;1.30;;;;;;;16.42;83.20;99371.16;5057565;28;20278;-78
2021/08/07 01:16:08;;;;;;;1.70;1.60;;;;;;;16.40;82.60;99388.84;5056397;28;20209;-78
2021/08/07 01:18:38;;;;;;;1.60;1.40;;;;;;;16.35;82.96;99381.22;5059120;28;20198;-78
2021/08/07 01:21:08;;;;;;;2.17;1.67;;;;;;;16.33;83.60;99369.06;5058669;28;20220;-77
2021/08/07 01:23:43;;;;;;;2.70;1.47;;;;;;;16.34;83.08;99376.88;5057903;28;20742;-78
2021/08/07 01:26:15;;;;;;;1.80;1.37;;;;;;;16.35;82.83;99380.34;5058864;28;20193;-78
2021/08/07 01:28:45;;;;;;;1.50;1.40;;;;;;;16.31;83.06;99379.69;5058717;28;20209;-78
2021/08/07 01:31:14;;;;;;;2.73;1.50;;;;;;;16.35;82.75;99390.88;5058146;28;20236;-78
2021/08/07 01:33:42;;;;;;;1.60;1.50;;;;;;;16.33;83.45;99367.28;5055812;28;20757;-78
2021/08/07 01:36:09;;;;;;;1.43;1.33;;;;;;;16.26;83.38;99366.81;5058635;28;20201;-78
2021/08/07 01:38:37;;;;;;;1.80;1.50;;;;;;;16.25;83.86;99348.44;5058205;28;20264;-78
2021/08/07 01:41:04;;;;;;;1.80;1.70;;;;;;;16.27;84.62;99321.13;5058350;28;20236;-77
2021/08/07 01:43:30;;;;;;;3.07;1.67;;;;;;;16.28;84.72;99312.25;5057155;28;20633;-78
2021/08/07 01:45:58;;;;;;;1.23;1.13;;;;;;;16.30;84.50;99329.75;5058147;28;20232;-77
2021/08/07 01:48:31;;;;;;;1.27;1.17;;;;;;;16.28;83.89;99343.00;5058704;28;20209;-78
2021/08/07 01:51:04;;;;;;;1.80;1.30;;;;;;;16.22;83.66;99352.13;5057120;28;20274;-78
2021/08/07 01:53:34;;;;;;;1.23;1.23;;;;;;;16.23;83.62;99360.88;5056851;28;20233;-78
2021/08/07 01:56:05;;;;;;;1.93;1.27;;;;;;;16.19;83.64;99354.94;5058074;28;20206;-77
2021/08/07 01:58:34;;;;;;;1.80;1.40;;;;;;;16.19;83.75;99354.09;5057733;28;20190;-78
2021/08/07 02:01:02;;;;;;;1.63;1.53;;;;;;;16.15;83.72;99349.94;5053508;28;20612;-77
2021/08/07 02:03:32;;;;;;;1.40;1.30;;;;;;;16.13;83.58;99339.50;5056891;28;20225;-78
2021/08/07 02:05:59;;;;;;;1.53;1.37;;;;;;;16.06;83.88;99333.75;5057570;28;20216;-78
2021/08/07 02:08:25;;;;;;;1.43;1.33;;;;;;;16.05;83.92;99333.84;5057697;28;20227;-78
2021/08/07 02:10:52;;;;;;;1.80;1.37;;;;;;;16.03;83.90;99335.72;5058062;28;20259;-78
2021/08/07 02:13:21;;;;;;;2.70;1.50;;;;;;;16.02;83.67;99342.78;5056584;28;20221;-78
2021/08/07 02:15:50;;;;;;;3.97;1.60;;;;;;;16.06;83.91;99333.75;5054017;28;20237;-78
2021/08/07 02:18:21;;;;;;;1.83;1.73;;;;;;;16.01;83.42;99361.28;5037354;28;20256;-78
2021/08/07 02:20:49;;;;;;;3.27;1.57;;;;;;;15.95;83.78;99346.69;5037362;28;20248;-78
2021/08/07 02:23:18;;;;;;;2.90;1.40;;;;;;;15.91;83.83;99354.88;5036789;28;20303;-78
2021/08/07 02:25:48;;;;;;;2.47;1.70;;;;;;;15.95;84.46;99319.53;5037334;28;20217;-78
2021/08/07 02:28:15;;;;;;;1.73;1.60;;;;;;;15.94;84.12;99337.13;5037300;28;20644;-78
2021/08/07 02:30:41;;;;;;;1.40;1.30;;;;;;;15.95;84.67;99317.75;5036928;28;20640;-78
2021/08/07 02:33:09;;;;;;;1.13;1.13;;;;;;;15.93;84.89;99311.72;5037632;28;20248;-78
2021/08/07 02:35:37;;;;;;;1.30;1.30;;;;;;;15.92;84.67;99317.94;5036817;28;20209;-78
2021/08/07 02:38:05;;;;;;;1.60;1.40;;;;;;;15.93;84.74;99314.38;5037262;28;20205;-78
2021/08/07 02:40:32;;;;;;;1.60;1.50;;;;;;;15.88;85.26;99293.59;5037507;28;20217;-78
2021/08/07 02:43:00;;;;;;;1.37;1.27;;;;;;;15.87;85.25;99297.16;5048156;28;20225;-78
2021/08/07 02:45:27;;;;;;;2.40;1.33;;;;;;;15.90;84.92;99306.66;5057772;28;20213;-78
2021/08/07 02:47:54;;;;;;;1.30;1.20;;;;;;;15.85;84.69;99311.34;5057895;28;20224;-78
2021/08/07 02:50:21;;;;;;;1.67;1.07;;;;;;;15.85;84.82;99312.19;5053399;28;20218;-78
2021/08/07 02:52:49;;;;;;;1.83;1.73;;;;;;;15.82;84.77;99308.91;5034997;28;20237;-78
2021/08/07 02:55:16;;;;;;;1.43;1.23;;;;;;;15.80;84.48;99323.94;5037568;28;20218;-78
2021/08/07 02:57:42;;;;;;;2.10;1.50;;;;;;;15.81;84.45;99323.00;5037140;28;20213;-77
2021/08/07 03:00:09;;;;;;;1.80;1.57;;;;;;;15.79;84.37;99327.50;5053929;28;20262;-78
2021/08/07 03:02:36;;;;;;;1.47;1.40;;;;;;;15.78;84.26;99331.06;5056615;28;20217;-78
2021/08/07 03:05:02;;;;;;;1.40;1.30;;;;;;;15.78;84.02;99342.44;5057171;28;20253;-78
2021/08/07 03:07:29;;;;;;;1.87;1.37;;;;;;;15.75;83.97;99337.34;5056789;28;20205;-78
2021/08/07 03:09:56;;;;;;;1.63;1.53;;;;;;;15.72;84.34;99337.50;5055857;28;20212;-77
2021/08/07 03:12:23;;;;;;;1.80;1.63;;;;;;;15.64;84.46;99326.59;5050687;28;20230;-78
2021/08/07 03:14:49;;;;;;;1.80;1.70;;;;;;;15.60;84.51;99327.66;5056427;28;20663;-78
2021/08/07 03:17:16;;;;;;;2.07;1.43;;;;;;;15.60;84.43;99335.56;5056651;28;20744;-77
2021/08/07 03:19:42;;;;;;;1.70;1.60;;;;;;;15.54;84.35;99336.78;5056506;28;20208;-78
2021/08/07 03:22:09;;;;;;;1.80;1.60;;;;;;;15.55;84.49;99340.25;5055019;28;20225;-77
2021/08/07 03:24:35;;;;;;;2.87;1.60;;;;;;;15.57;84.21;99330.50;5053532;28;20560;-77
2021/08/07 03:27:03;;;;;;;1.80;1.70;;;;;;;15.53;84.25;99332.44;5034663;28;20751;-78
2021/08/07 03:29:30;;;;;;;1.87;1.77;;;;;;;15.53;84.31;99332.44;5034610;28;20217;-78
2021/08/07 03:31:56;;;;;;;1.60;1.50;;;;;;;15.55;84.41;99321.84;5034066;28;20225;-78
2021/08/07 03:34:22;;;;;;;1.70;1.60;;;;;;;15.54;84.59;99326.25;5034419;28;20628;-78
2021/08/07 03:36:49;;;;;;;1.70;1.60;;;;;;;15.53;84.28;99336.88;5034323;28;20263;-78
2021/08/07 03:39:15;;;;;;;1.60;1.50;;;;;;;15.49;84.41;99329.13;5034768;28;20213;-78
2021/08/07 03:41:42;;;;;;;1.73;1.60;;;;;;;15.49;84.56;99317.78;5042640;28;20209;-78
2021/08/07 03:44:10;;;;;;;1.97;1.87;;;;;;;15.45;84.71;99322.34;5053280;28;20205;-78
2021/08/07 03:46:36;;;;;;;1.50;1.40;;;;;;;15.45;84.67;99314.47;5054453;28;20744;-78
2021/08/07 03:49:03;;;;;;;2.80;1.80;;;;;;;15.41;84.86;99312.09;5056353;28;20255;-78
2021/08/07 03:51:29;;;;;;;3.00;1.53;;;;;;;15.40;84.43;99308.66;5057972;28;20233;-78
2021/08/07 03:53:55;;;;;;;2.67;1.63;;;;;;;15.41;84.38;99320.84;5057262;28;20783;-77
2021/08/07 03:56:22;;;;;;;1.90;1.73;;;;;;;15.36;84.75;99315.00;5058172;28;20205;-78
2021/08/07 03:58:48;;;;;;;1.53;1.43;;;;;;;15.38;84.79;99288.59;5058382;28;20204;-78
2021/08/07 04:01:16;;;;;;;2.13;1.50;;;;;;;15.37;84.51;99292.19;5058946;28;20318;-78
2021/08/07 04:03:43;;;;;;;1.60;1.50;;;;;;;15.39;84.83;99285.91;5057817;28;20247;-78
2021/08/07 04:06:09;;;;;;;1.63;1.53;;;;;;;15.42;84.86;99293.63;5059129;28;20212;-78
2021/08/07 04:08:35;;;;;;;1.60;1.50;;;;;;;15.37;84.85;99305.34;5059361;28;20211;-78
2021/08/07 04:11:02;;;;;;;2.00;1.80;;;;;;;15.40;84.80;99289.38;5058419;28;20260;-79
2021/08/07 04:13:28;;;;;;;1.90;1.80;;;;;;;15.46;84.68;99305.66;5058031;28;20223;-78
2021/08/07 04:15:55;;;;;;;1.87;1.57;;;;;;;15.49;84.61;99297.56;5058777;28;20313;-78
2021/08/07 04:18:23;;;;;;;2.80;1.67;;;;;;;15.58;84.59;99309.38;5040115;28;20218;-78
2021/08/07 04:20:49;;;;;;;2.27;1.70;;;;;;;15.64;84.35;99302.91;5039252;28;20617;-78
2021/08/07 04:23:15;;;;;;;1.50;1.40;;;;;;;15.68;84.12;99317.56;5038151;28;20223;-78
2021/08/07 04:25:43;;;;;;;1.90;1.40;;;;;;;15.71;84.02;99319.16;5038924;28;20590;-78
2021/08/07 04:28:09;;;;;;;3.33;1.40;;;;;;;15.72;84.04;99326.97;5038414;28;20201;-78
2021/08/07 04:30:36;;;;;;;2.97;1.80;;;;;;;15.76;84.69;99301.38;5040128;28;20213;-77
2021/08/07 04:33:02;;;;;;;2.13;1.60;;;;;;;15.80;84.77;99298.47;5058035;28;20310;-78
2021/08/07 04:35:30;;;;;;;3.10;1.70;;;;;;;15.84;84.22;99318.41;5059628;28;20212;-78
2021/08/07 04:37:59;;;;;;;1.73;1.60;;;;;;;15.83;84.22;99321.94;5058887;28;20212;-78
2021/08/07 04:40:27;;;;;;;1.60;1.20;;;;;;;15.85;84.51;99304.28;5059498;28;20210;-78
2021/08/07 04:42:54;;;;;;;2.20;1.40;;;;;;;15.88;84.68;99303.28;5056534;28;20221;-78
2021/08/07 04:45:20;;;;;;;1.63;1.53;;;;;;;15.89;83.88;99332.13;5057681;28;20549;-78
2021/08/07 04:47:51;;;;;;;2.27;1.57;;;;;;;15.97;83.70;99333.47;5058292;28;20238;-78
2021/08/07 04:50:18;;;;;;;1.77;1.50;;;;;;;15.96;83.51;99339.69;5057929;28;20232;-78
2021/08/07 04:52:46;;;;;;;1.80;1.60;;;;;;;15.94;83.29;99360.81;5055679;28;20240;-78
2021/08/07 04:55:12;;;;;;;1.53;1.43;;;;;;;15.95;83.84;99330.06;5057904;28;20212;-78
2021/08/07 04:57:39;;;;;;;1.50;1.40;;;;;;;15.99;83.79;99335.06;5058382;28;20213;-78
2021/08/07 05:00:07;;;;;;;2.03;1.50;;;;;;;16.01;83.14;99345.50;5057434;28;20208;-78
2021/08/07 05:02:34;;;;;;;3.03;1.50;;;;;;;16.08;83.07;99362.63;5053430;28;20299;-78
2021/08/07 05:05:00;;;;;;;1.23;1.10;;;;;;;16.05;82.91;99371.56;5037876;28;20209;-78
2021/08/07 05:07:29;;;;;;;1.53;1.30;;;;;;;16.06;82.78;99381.16;5037472;28;20210;-78
2021/08/07 05:09:57;;;;;;;6.53;1.43;;;;;;;16.10;82.79;99383.63;5037386;28;20205;-78
2021/08/07 05:12:26;;;;;;;3.03;1.70;;;;;;;16.15;83.11;99371.00;5052589;28;20273;-78
2021/08/07 05:14:53;;;;;;;2.13;1.50;;;;;;;16.18;82.80;99373.47;5057899;28;20601;-78
2021/08/07 05:17:19;;;;;;;1.57;1.20;;;;;;;16.20;82.59;99375.06;5057650;28;20260;-78
2021/08/07 05:19:46;;;;;;;2.03;1.10;;;;;;;16.19;82.40;99391.78;5057262;28;20260;-78
2021/08/07 05:22:12;;;;;;;4.23;1.67;;;;;;;16.25;82.49;99382.69;5036375;28;20260;-78
2021/08/07 05:24:39;;;;;;;1.43;1.33;;;;;;;16.27;82.93;99370.28;5037398;28;20205;-78
2021/08/07 05:27:06;;;;;;;3.03;1.20;;;;;;;16.30;82.82;99364.84;5040733;28;20204;-78
2021/08/07 05:29:33;;;;;;;2.40;1.40;;;;;;;16.35;82.50;99375.97;5057816;28;20207;-78
2021/08/07 05:31:59;;;;;;;1.23;1.20;;;;;;;16.35;82.81;99373.31;5057052;28;20636;-78
2021/08/07 05:34:25;;;;;;;1.63;1.37;;;;;;;16.34;83.66;99342.66;5055112;28;20208;-78
2021/08/07 05:36:52;;;;;;;1.73;1.47;;;;;;;16.40;83.10;99344.06;5049690;28;20207;-78
2021/08/07 05:39:18;;;;;;;1.20;1.17;;;;;;;16.38;82.12;99386.28;5044142;28;20259;-78
2021/08/07 05:41:45;;;;;;;1.53;1.30;;;;;;;16.41;81.58;99403.69;5014684;28;1031101;-78
2021/08/07 05:44:13;;;;;;;2.13;1.53;;;;;;;16.45;81.32;99439.44;5045827;28;20206;-78
2021/08/07 05:46:39;;;;;;;1.27;1.27;;;;;;;16.50;81.30;99429.50;5045969;28;20220;-78
2021/08/07 05:49:05;;;;;;;1.30;1.30;;;;;;;16.53;81.09;99431.09;5044853;28;20196;-78
2021/08/07 05:51:34;;;;;;;1.30;1.20;;;;;;;16.54;80.81;99459.13;5047981;28;20208;-78
2021/08/07 05:54:01;;;;;;;1.37;1.00;;;;;;;16.53;80.12;99467.97;5044718;28;20220;-78
2021/08/07 05:56:27;;;;;;;2.37;1.17;;;;;;;16.60;80.19;99461.41;5046572;28;20225;-78
2021/08/07 05:58:54;;;;;;;2.10;1.10;;;;;;;16.70;80.50;99444.09;5045526;28;20206;-78
2021/08/07 06:01:22;;;;;;;1.00;1.00;;;;;;;16.71;80.42;99451.09;5048079;28;20227;-78
2021/08/07 06:03:48;;;;;;;1.40;1.30;;;;;;;16.79;80.49;99445.34;5049907;28;20634;-78
2021/08/07 06:06:15;;;;;;;1.80;1.23;;;;;;;16.80;81.28;99415.41;5057223;28;20215;-78
2021/08/07 06:08:41;;;;;;;1.10;1.10;;;;;;;16.83;80.98;99428.44;5057122;28;20679;-78
2021/08/07 06:11:07;;;;;;;1.70;1.13;;;;;;;16.86;80.13;99462.50;5056988;28;20224;-78
2021/08/07 06:13:34;;;;;;;1.47;1.30;;;;;;;16.90;80.78;99450.00;5056787;28;20639;-78
2021/08/07 06:16:00;;;;;;;1.40;1.30;;;;;;;16.93;80.04;99457.72;5057941;28;20209;-78
2021/08/07 06:18:28;;;;;;;1.10;1.07;;;;;;;16.91;79.86;99471.00;5056324;28;20209;-77
2021/08/07 06:20:55;;;;;;;1.30;1.20;;;;;;;16.94;79.24;99486.59;5055488;28;20213;-78
2021/08/07 06:23:24;;;;;;;1.67;1.03;;;;;;;16.98;78.96;99495.19;5055713;28;20225;-78
2021/08/07 06:25:50;;;;;;;1.77;1.10;;;;;;;17.00;79.61;99473.03;5045405;28;20263;-79
2021/08/07 06:28:17;;;;;;;1.93;1.17;;;;;;;17.02;77.90;99536.25;5036878;28;20217;-78
2021/08/07 06:30:46;;;;;;;0.93;0.93;;;;;;;17.09;78.37;99511.22;5036796;28;20198;-78
2021/08/07 06:33:12;;;;;;;1.10;1.00;;;;;;;17.15;78.49;99523.19;5035861;28;20651;-79
2021/08/07 06:35:40;;;;;;;0.83;0.83;;;;;;;17.16;78.97;99509.88;5036584;28;20207;-78
2021/08/07 06:38:07;;;;;;;1.10;1.00;;;;;;;17.21;77.25;99528.06;5037168;28;20267;-78
2021/08/07 06:40:34;;;;;;;1.63;1.00;;;;;;;17.24;78.12;99544.56;5036496;28;20218;-78
2021/08/07 06:43:01;;;;;;;1.10;1.00;;;;;;;17.31;76.52;99581.13;5053983;28;20745;-78
2021/08/07 06:45:27;;;;;;;1.33;1.10;;;;;;;17.38;75.90;99611.44;5056492;28;20201;-78
2021/08/07 06:47:54;;;;;;;1.27;1.00;;;;;;;17.46;76.54;99590.72;5057743;28;20208;-78
2021/08/07 06:50:20;;;;;;;1.73;0.90;;;;;;;17.51;76.18;99599.22;5056021;28;20208;-78
2021/08/07 06:52:48;;;;;;;1.20;1.10;;;;;;;17.54;76.15;99604.31;5055059;28;20240;-78
2021/08/07 06:55:14;;;;;;;1.50;0.93;;;;;;;17.60;77.16;99558.19;5056209;28;20754;-78
2021/08/07 06:57:42;;;;;;;0.90;0.80;;;;;;;17.60;76.29;99595.13;5055750;28;20209;-78
2021/08/07 07:00:11;;;;;;;1.23;0.97;;;;;;;17.69;76.64;99577.91;5055464;28;20202;-78
2021/08/07 07:02:37;;;;;;;1.10;1.00;;;;;;;17.75;76.96;99565.16;5056079;28;20829;-78
2021/08/07 07:05:04;;;;;;;1.17;1.00;;;;;;;17.81;76.85;99575.34;5057497;28;20673;-77
2021/08/07 07:07:31;;;;;;;1.43;1.00;;;;;;;17.85;75.12;99620.91;5055641;28;20863;-78
2021/08/07 07:09:58;;;;;;;0.87;0.77;;;;;;;17.91;75.18;99646.09;5057990;28;20663;-78
2021/08/07 07:12:25;;;;;;;0.93;0.93;;;;;;;17.87;73.26;99714.06;5056431;28;20263;-78
2021/08/07 07:14:53;;;;;;;0.90;0.90;;;;;;;17.93;73.29;99728.69;5058026;28;20232;-77
2021/08/07 07:17:19;;;;;;;1.83;0.83;;;;;;;17.95;73.15;99722.38;5056429;28;20202;-78
2021/08/07 07:19:45;;;;;;;1.63;0.90;;;;;;;18.01;73.20;99718.50;5058340;28;20210;-80
2021/08/07 07:22:12;;;;;;;1.10;1.00;;;;;;;18.04;72.35;99757.94;5057709;28;20225;-77
2021/08/07 07:24:38;;;;;;;1.10;0.90;;;;;;;18.17;73.22;99713.97;5060177;28;20214;-76
2021/08/07 07:27:06;;;;;;;0.70;0.60;;;;;;;18.15;70.57;99818.88;5057320;28;20205;-78
2021/08/07 07:29:33;;;;;;;0.80;0.80;;;;;;;18.23;71.33;99807.84;5057394;28;20682;-78
2021/08/07 07:31:59;;;;;;;0.93;0.90;;;;;;;18.30;72.95;99739.66;5055716;28;20931;-78
2021/08/07 07:34:26;;;;;;;1.13;0.90;;;;;;;18.40;72.52;99768.03;5054613;28;20709;-78
2021/08/07 07:36:54;;;;;;;1.17;0.83;;;;;;;18.43;71.22;99810.13;5056341;28;20206;-78
2021/08/07 07:39:20;;;;;;;1.53;0.90;;;;;;;18.54;72.37;99751.31;5057587;28;20201;-77
2021/08/07 07:41:47;;;;;;;1.07;0.77;;;;;;;18.66;72.64;99747.88;5059559;28;20261;-80
2021/08/07 07:44:15;;;;;;;0.77;0.77;;;;;;;18.68;70.76;99828.91;5056379;28;20232;-80
2021/08/07 07:46:41;;;;;;;0.83;0.70;;;;;;;18.78;72.96;99743.59;5055810;28;20207;-77
2021/08/07 07:49:07;;;;;;;0.80;0.80;;;;;;;18.69;69.93;99875.53;5063506;28;20304;-78
2021/08/07 07:51:34;;;;;;;1.07;1.00;;;;;;;18.78;70.87;99836.16;5061177;28;20617;-78
2021/08/07 07:54:01;;;;;;;1.50;1.23;;;;;;;18.68;70.81;99855.34;5062258;28;20268;-78
2021/08/07 07:56:27;;;;;;;5.63;1.00;;;;;;;18.81;72.23;99777.84;5062656;28;20234;-78
2021/08/07 07:58:54;;;;;;;1.03;0.90;;;;;;;18.78;70.68;99852.00;5051251;28;20222;-77
2021/08/07 08:01:22;;;;;;;1.57;0.93;;;;;;;18.89;71.41;99816.13;5051513;28;20239;-77
2021/08/07 08:03:48;;;;;;;1.20;1.10;;;;;;;18.85;70.69;99850.72;5050728;28;20215;-77
2021/08/07 08:06:15;;;;;;;0.97;0.70;;;;;;;18.64;69.47;99881.13;5052569;28;20202;-77
2021/08/07 08:08:41;;;;;;;1.27;1.10;;;;;;;18.52;69.26;99879.22;5051956;28;20206;-77
2021/08/07 08:11:08;;;;;;;1.20;0.80;;;;;;;18.50;69.63;99852.88;5052134;28;20373;-76
2021/08/07 08:13:34;;;;;;;1.13;0.90;;;;;;;18.57;70.70;99821.63;5050516;28;20249;-77
2021/08/07 08:16:01;;;;;;;1.10;1.00;;;;;;;18.70;72.37;99771.50;5051016;28;20236;-78
2021/08/07 08:18:29;;;;;;;2.00;0.80;;;;;;;18.70;70.38;99840.22;5052492;28;20214;-78
2021/08/07 08:20:55;;;;;;;1.43;0.90;;;;;;;18.89;71.64;99780.00;5055225;28;20233;-79
2021/08/07 08:23:22;;;;;;;0.83;0.83;;;;;;;18.98;70.18;99799.69;5054778;28;20645;-77
2021/08/07 08:25:49;;;;;;;0.70;0.70;;;;;;;19.09;70.00;99806.94;5055929;28;20214;-78
2021/08/07 08:28:16;;;;;;;1.67;0.90;;;;;;;19.09;69.55;99839.53;5056890;28;20233;-78
2021/08/07 08:30:42;;;;;;;0.87;0.87;;;;;;;19.20;72.92;99727.72;5054304;28;20237;-78
2021/08/07 08:33:09;;;;;;;2.50;0.90;;;;;;;19.27;71.19;99759.94;5055007;28;20237;-78
2021/08/07 08:35:37;;;;;;;0.77;0.77;;;;;;;19.23;70.41;99806.91;5057394;28;20206;-79
2021/08/07 08:38:04;;;;;;;1.03;1.00;;;;;;;19.36;72.89;99717.78;5058152;28;20204;-78
2021/08/07 08:40:30;;;;;;;1.43;1.30;;;;;;;19.46;72.06;99733.91;5059531;28;20211;-79
2021/08/07 08:42:57;;;;;;;2.40;1.23;;;;;;;19.67;72.67;99717.53;5057622;28;20565;-78
2021/08/07 08:45:23;;;;;;;2.03;1.00;;;;;;;19.85;70.38;99795.75;5059511;28;20262;-77
2021/08/07 08:47:50;;;;;;;0.97;0.97;;;;;;;19.84;68.85;99877.03;5060502;28;20207;-77
2021/08/07 08:50:21;;;;;;;0.90;0.90;;;;;;;19.91;69.04;99850.13;5059173;28;20215;-78
2021/08/07 08:52:50;;;;;;;1.27;1.10;;;;;;;19.91;69.40;99861.56;5055893;28;20243;-78
2021/08/07 08:55:17;;;;;;;1.93;1.10;;;;;;;19.96;70.26;99814.44;5058454;28;20257;-78
2021/08/07 08:57:45;;;;;;;1.43;1.00;;;;;;;19.94;68.15;99874.63;5058411;28;20691;-79
2021/08/07 09:00:12;;;;;;;2.07;0.70;;;;;;;19.97;67.01;99947.72;5057222;28;20208;-79
2021/08/07 09:02:39;;;;;;;1.03;0.80;;;;;;;19.86;65.73;99980.22;5057004;28;20234;-78
2021/08/07 09:05:08;;;;;;;1.13;0.80;;;;;;;19.97;66.33;99956.53;5058003;28;20707;-78
2021/08/07 09:07:34;;;;;;;0.83;0.70;;;;;;;20.08;64.57;100008.81;5057158;28;20230;-79
2021/08/07 09:10:03;;;;;;;1.03;0.77;;;;;;;20.18;65.10;100012.56;5057574;28;20979;-78
2021/08/07 09:12:44;;;;;;;1.20;1.10;;;;;;;20.26;64.08;100017.34;5056324;28;20254;-78
2021/08/07 09:15:32;;;;;;;0.80;0.77;;;;;;;20.43;64.84;100003.84;5057875;28;20202;-78
2021/08/07 09:18:13;;;;;;;1.70;0.87;;;;;;;20.42;65.16;99980.06;5057217;28;20212;-77
2021/08/07 09:20:41;;;;;;;1.60;1.00;;;;;;;20.57;66.25;99941.03;5057947;28;20204;-77
2021/08/07 09:23:08;;;;;;;3.30;0.97;;;;;;;20.67;65.13;99984.56;5057219;28;20248;-79
2021/08/07 09:25:37;;;;;;;1.57;1.00;;;;;;;20.93;65.70;99953.63;5057930;28;20234;-78
2021/08/07 09:28:05;;;;;;;1.67;1.10;;;;;;;21.08;65.44;99964.09;5057614;28;20266;-78
2021/08/07 09:30:34;;;;;;;1.03;1.00;;;;;;;21.15;67.50;99857.41;5057040;28;20211;-77
2021/08/07 09:33:03;;;;;;;1.20;1.00;;;;;;;21.21;66.77;99886.16;5057189;28;20232;-78
2021/08/07 09:35:31;;;;;;;2.13;1.20;;;;;;;21.15;66.98;99899.84;5058119;28;20218;-78
2021/08/07 09:38:10;;;;;;;1.47;1.00;;;;;;;21.14;66.90;99907.94;5057267;28;20209;-79
2021/08/07 09:40:44;;;;;;;2.00;1.00;;;;;;;21.23;65.38;99949.75;5058481;28;20239;-79
2021/08/07 09:43:12;;;;;;;4.13;1.10;;;;;;;21.21;68.18;99832.22;5057408;28;20232;-77
2021/08/07 09:45:39;;;;;;;0.70;0.70;;;;;;;21.33;66.10;99899.50;5056973;28;20212;-79
2021/08/07 09:48:08;;;;;;;0.87;0.87;;;;;;;21.37;63.11;100010.66;5057502;28;20211;-77
2021/08/07 09:50:35;;;;;;;0.90;0.73;;;;;;;21.43;64.74;99974.91;5058463;28;20216;-78
2021/08/07 09:53:03;;;;;;;0.83;0.80;;;;;;;21.49;62.50;100048.81;5056699;28;20228;-79
2021/08/07 09:55:30;;;;;;;1.17;0.80;;;;;;;21.33;60.49;100136.63;5058227;28;20212;-78
2021/08/07 09:58:07;;;;;;;1.00;0.90;;;;;;;21.38;60.76;100102.63;5057590;28;20205;-78
2021/08/07 10:00:37;;;;;;;1.70;0.67;;;;;;;21.33;60.49;100096.81;5058118;28;20299;-78
2021/08/07 10:03:16;;;;;;;0.70;0.60;;;;;;;21.36;59.54;100165.63;5057810;28;20228;-78
2021/08/07 10:05:43;;;;;;;1.03;0.60;;;;;;;21.45;60.06;100148.25;5059191;28;20210;-79
2021/08/07 10:08:10;;;;;;;1.07;0.70;;;;;;;21.49;60.50;100112.56;5057625;28;20559;-78
2021/08/07 10:10:37;;;;;;;2.00;1.00;;;;;;;21.51;59.83;100145.16;5058292;28;20219;-79
2021/08/07 10:13:06;;;;;;;1.87;0.70;;;;;;;21.57;58.69;100173.13;5057219;28;20228;-78
2021/08/07 10:15:32;;;;;;;1.37;0.80;;;;;;;21.73;59.61;100147.19;5058042;28;20215;-78
2021/08/07 10:18:00;;;;;;;1.23;0.90;;;;;;;21.76;59.76;100135.47;5057077;28;20204;-78
2021/08/07 10:20:28;;;;;;;1.73;0.80;;;;;;;21.73;60.72;100104.66;5057577;28;20303;-78
2021/08/07 10:22:55;;;;;;;1.00;0.80;;;;;;;21.65;60.37;100112.34;5057015;28;20256;-77
2021/08/07 10:25:23;;;;;;;2.50;0.77;;;;;;;21.65;60.50;100091.09;5058683;28;20211;-78
2021/08/07 10:27:56;;;;;;;1.90;0.90;;;;;;;21.67;62.53;100011.28;5057970;28;20211;-78
2021/08/07 10:30:25;;;;;;;1.90;0.80;;;;;;;21.70;61.85;99998.59;5057679;28;20208;-78
2021/08/07 10:32:54;;;;;;;1.33;0.90;;;;;;;21.88;62.84;99998.22;5055749;28;20228;-77
2021/08/07 10:35:24;;;;;;;1.70;0.80;;;;;;;22.00;62.07;100030.09;5052457;28;20224;-77
2021/08/07 10:37:50;;;;;;;1.17;0.70;;;;;;;22.17;62.51;100026.16;5057938;28;20216;-78
2021/08/07 10:40:17;;;;;;;1.57;0.90;;;;;;;22.31;61.56;100046.44;5056731;28;20209;-77
2021/08/07 10:42:45;;;;;;;0.77;0.70;;;;;;;22.46;60.78;100099.44;5055849;28;20278;-78
2021/08/07 10:45:13;;;;;;;1.67;0.77;;;;;;;22.49;59.43;100141.81;5050534;28;20205;-77
2021/08/07 10:47:43;;;;;;;0.93;0.70;;;;;;;22.49;59.47;100129.34;5052138;28;20299;-78
2021/08/07 10:50:36;;;;;;;1.93;0.70;;;;;;;22.72;60.12;100065.59;5051541;28;20212;-77
2021/08/07 10:53:05;;;;;;;1.70;0.63;;;;;;;22.90;59.58;100111.25;5037236;28;20267;-77
2021/08/07 10:55:50;;;;;;;0.63;0.53;;;;;;;22.47;55.04;100333.44;5055664;28;20232;-77
2021/08/07 10:58:45;;;;;;;1.00;0.80;;;;;;;22.59;56.53;100238.59;5055718;28;20204;-78
2021/08/07 11:01:33;;;;;;;2.13;0.50;;;;;;;22.43;53.95;100358.53;5019427;28;20260;-78
2021/08/07 11:04:07;;;;;;;1.13;0.60;;;;;;;22.44;54.65;100330.13;5049664;28;20250;-77
2021/08/07 11:06:47;;;;;;;0.97;0.73;;;;;;;22.33;53.90;100349.50;5054794;28;20298;-77
2021/08/07 11:09:20;;;;;;;0.93;0.80;;;;;;;22.48;56.48;100243.84;5052330;28;20847;-78
2021/08/07 11:11:48;;;;;;;1.13;0.60;;;;;;;22.66;54.90;100289.56;5053878;28;20255;-77
2021/08/07 11:14:47;;;;;;;1.00;0.90;;;;;;;22.75;54.24;100321.66;5053119;28;20225;-78
2021/08/07 11:17:40;;;;;;;0.73;0.60;;;;;;;22.67;53.17;100360.44;5049918;28;20275;-78
2021/08/07 11:20:11;;;;;;;2.33;0.87;;;;;;;22.64;53.66;100297.66;5053612;28;20259;-77
2021/08/07 11:23:09;;;;;;;1.47;1.03;;;;;;;22.72;53.42;100302.44;5052751;28;20244;-77
2021/08/07 11:25:59;;;;;;;1.50;0.73;;;;;;;23.05;55.15;100242.38;5054657;28;20216;-78
2021/08/07 11:28:26;;;;;;;1.03;0.90;;;;;;;23.15;55.19;100252.25;5053927;28;20205;-77
2021/08/07 11:31:20;;;;;;;1.60;0.80;;;;;;;23.28;57.38;100137.63;5053977;28;20239;-78
2021/08/07 11:33:46;;;;;;;1.50;1.17;;;;;;;23.17;53.79;100319.56;5052964;28;20355;-78
2021/08/07 11:36:16;;;;;;;1.47;0.70;;;;;;;23.29;54.07;100282.31;5052947;28;20259;-78
2021/08/07 11:39:15;;;;;;;1.43;0.83;;;;;;;23.24;53.24;100289.81;5054270;28;20276;-78